Time;durP1;ratioP1;P1;durP2;ratioP2;P2;SDS_P1;SDS_P2;PMS_P1;PMS_P2;Temp;Humidity;BMP_temperature;BMP_pressure;BME280_temperature;BME280_humidity;BME280_pressure;Samples;Min_cycle;Max_cycle;Signal;HPM_P1;HPM_P2
2021/07/25 00:02:19;;;;;;;7.10;4.50;;;;;;;24.14;58.39;100498.97;5014034;28;20444;-70
2021/07/25 00:04:45;;;;;;;10.10;4.60;;;;;;;24.13;58.53;100494.63;5013684;28;20970;-70
2021/07/25 00:07:12;;;;;;;6.80;4.20;;;;;;;24.08;58.74;100489.47;5013973;28;20448;-70
2021/07/25 00:09:38;;;;;;;6.70;4.60;;;;;;;24.05;58.50;100490.28;5013816;28;20464;-70
2021/07/25 00:12:05;;;;;;;8.00;4.37;;;;;;;23.99;58.79;100480.75;5013928;28;20438;-70
2021/07/25 00:14:32;;;;;;;9.30;4.77;;;;;;;24.00;58.91;100482.38;5013829;28;20444;-70
2021/07/25 00:17:00;;;;;;;7.93;4.80;;;;;;;23.98;57.90;100477.22;5014035;28;20523;-70
2021/07/25 00:19:26;;;;;;;6.20;4.00;;;;;;;23.97;58.09;100475.63;5013680;28;20464;-70
2021/07/25 00:21:53;;;;;;;8.83;5.03;;;;;;;23.92;59.08;100465.75;5013253;28;21004;-70
2021/07/25 00:24:24;;;;;;;4.87;3.87;;;;;;;23.91;58.45;100461.41;5013714;28;20436;-70
2021/07/25 00:26:51;;;;;;;6.13;3.80;;;;;;;23.87;58.16;100460.63;5013691;28;20498;-70
2021/07/25 00:29:17;;;;;;;4.97;3.47;;;;;;;23.85;58.13;100462.97;5013374;28;20468;-70
2021/07/25 00:31:44;;;;;;;7.80;4.00;;;;;;;23.80;58.77;100452.31;5013555;28;20448;-70
2021/07/25 00:34:11;;;;;;;8.40;4.63;;;;;;;23.75;59.08;100447.16;5013609;28;20444;-70
2021/07/25 00:36:38;;;;;;;7.43;4.90;;;;;;;23.70;59.28;100452.31;5013525;28;20440;-70
2021/07/25 00:39:07;;;;;;;8.17;4.90;;;;;;;23.63;59.85;100441.97;5013456;28;20543;-70
2021/07/25 00:41:34;;;;;;;7.80;4.43;;;;;;;23.62;59.41;100437.66;5013322;28;20490;-70
2021/07/25 00:44:00;;;;;;;7.33;3.77;;;;;;;23.57;60.22;100438.81;5013364;28;20436;-70
2021/07/25 00:46:27;;;;;;;7.60;4.70;;;;;;;23.54;59.74;100433.28;5013109;28;20941;-70
2021/07/25 00:48:55;;;;;;;13.13;4.63;;;;;;;23.49;60.35;100436.44;5013292;28;20472;-70
2021/07/25 00:51:23;;;;;;;5.90;4.30;;;;;;;23.44;61.13;100434.84;5013373;28;20444;-70
2021/07/25 00:53:50;;;;;;;7.63;4.67;;;;;;;23.39;61.08;100444.31;5013350;28;20448;-71
2021/07/25 00:56:16;;;;;;;8.33;4.60;;;;;;;23.35;62.58;100438.00;5013355;28;20474;-70
2021/07/25 00:58:44;;;;;;;7.03;4.47;;;;;;;23.30;62.44;100440.34;5013212;28;20471;-70
2021/07/25 01:01:12;;;;;;;7.60;4.23;;;;;;;23.23;62.79;100432.81;5013252;28;20492;-70
2021/07/25 01:03:56;;;;;;;8.00;4.20;;;;;;;23.17;62.58;100434.41;5013261;28;20447;-70
2021/07/25 01:06:38;;;;;;;5.43;3.70;;;;;;;23.10;63.51;100432.38;5013316;28;20463;-70
2021/07/25 01:09:09;;;;;;;6.57;4.03;;;;;;;23.04;63.72;100428.44;5013203;28;20478;-70
2021/07/25 01:11:40;;;;;;;7.67;4.67;;;;;;;22.92;63.10;100432.31;5013277;28;20424;-70
2021/07/25 01:14:08;;;;;;;7.00;4.43;;;;;;;22.87;63.66;100427.16;5013283;28;20417;-70
2021/07/25 01:16:35;;;;;;;7.20;4.17;;;;;;;22.85;63.91;100431.50;5012733;28;20460;-70
2021/07/25 01:19:01;;;;;;;8.67;4.97;;;;;;;22.80;63.05;100429.09;5013132;28;20472;-70
2021/07/25 01:21:29;;;;;;;10.10;3.97;;;;;;;22.74;64.05;100428.66;5012904;28;20483;-70
2021/07/25 01:23:58;;;;;;;5.67;3.67;;;;;;;22.71;64.00;100421.19;5013160;28;20432;-69
2021/07/25 01:26:30;;;;;;;7.07;4.20;;;;;;;22.67;64.55;100425.91;5013071;28;20815;-70
2021/07/25 01:28:59;;;;;;;7.17;4.37;;;;;;;22.62;63.95;100432.59;5014372;28;20850;-70
2021/07/25 01:31:30;;;;;;;7.90;4.50;;;;;;;22.60;63.86;100425.84;5013033;28;20444;-70
2021/07/25 01:33:59;;;;;;;8.60;5.67;;;;;;;22.59;63.54;100421.50;5013101;28;20456;-70
2021/07/25 01:36:26;;;;;;;6.77;4.73;;;;;;;22.59;64.47;100427.03;5013016;28;20436;-70
2021/07/25 01:38:54;;;;;;;9.83;4.97;;;;;;;22.55;64.38;100423.47;5012942;28;20451;-69
2021/07/25 01:41:20;;;;;;;9.70;5.00;;;;;;;22.54;64.26;100416.38;5012799;28;20875;-69
2021/07/25 01:43:50;;;;;;;10.17;4.50;;;;;;;22.46;63.86;100423.81;5016624;28;20447;-69
2021/07/25 01:46:17;;;;;;;10.67;5.00;;;;;;;22.47;64.20;100421.84;5016562;28;20471;-69
2021/07/25 01:48:44;;;;;;;7.47;4.80;;;;;;;22.45;64.30;100419.47;5016460;28;20460;-70
2021/07/25 01:51:13;;;;;;;9.63;4.70;;;;;;;22.42;64.26;100421.03;5016450;28;20550;-70
2021/07/25 01:53:39;;;;;;;8.97;4.97;;;;;;;22.38;64.91;100419.41;5016477;28;20788;-70
2021/07/25 01:56:07;;;;;;;8.17;4.47;;;;;;;22.38;64.20;100420.19;5016114;28;20966;-70
2021/07/25 01:58:34;;;;;;;8.50;5.33;;;;;;;22.38;64.32;100416.66;5016266;28;20464;-70
2021/07/25 02:01:00;;;;;;;8.07;4.90;;;;;;;22.41;64.86;100429.69;5015854;28;20483;-69
2021/07/25 02:03:28;;;;;;;5.47;4.37;;;;;;;22.37;64.78;100432.44;5016251;28;20451;-70
2021/07/25 02:05:55;;;;;;;7.00;5.57;;;;;;;22.37;64.34;100423.34;5016227;28;20451;-71
2021/07/25 02:08:22;;;;;;;6.83;4.70;;;;;;;22.40;64.28;100425.31;5016083;28;20432;-71
2021/07/25 02:10:50;;;;;;;8.27;4.30;;;;;;;22.38;63.92;100433.22;5016124;28;20444;-71
2021/07/25 02:13:19;;;;;;;10.77;5.70;;;;;;;22.38;65.43;100435.97;5015765;28;20933;-71
2021/07/25 02:15:45;;;;;;;7.57;4.50;;;;;;;22.36;65.31;100428.09;5016043;28;20520;-71
2021/07/25 02:18:12;;;;;;;9.27;4.43;;;;;;;22.33;64.84;100428.84;5015876;28;20442;-71
2021/07/25 02:20:41;;;;;;;11.20;5.00;;;;;;;22.32;64.85;100430.03;5015859;28;20440;-71
2021/07/25 02:23:07;;;;;;;9.53;4.63;;;;;;;22.30;64.85;100420.53;5015568;28;20507;-71
2021/07/25 02:25:34;;;;;;;6.30;4.23;;;;;;;22.27;65.31;100422.13;5015495;28;20937;-71
2021/07/25 02:28:00;;;;;;;10.33;5.00;;;;;;;22.23;66.04;100415.78;5015789;28;20440;-71
2021/07/25 02:30:28;;;;;;;9.30;5.10;;;;;;;22.23;66.85;100415.78;5015631;28;20471;-71
2021/07/25 02:32:54;;;;;;;7.80;4.73;;;;;;;22.19;66.75;100414.97;5015730;28;20447;-71
2021/07/25 02:35:21;;;;;;;8.87;5.03;;;;;;;22.14;67.31;100418.88;5015652;28;20822;-71
2021/07/25 02:37:47;;;;;;;17.77;5.13;;;;;;;22.10;66.57;100428.28;5015364;28;20866;-71
2021/07/25 02:40:14;;;;;;;5.63;4.03;;;;;;;22.04;66.95;100427.03;5015488;28;20475;-70
2021/07/25 02:42:40;;;;;;;10.30;5.43;;;;;;;21.99;66.71;100422.66;5015494;28;20484;-71
2021/07/25 02:45:07;;;;;;;7.73;5.60;;;;;;;21.97;67.96;100419.50;5015433;28;20444;-71
2021/07/25 02:47:35;;;;;;;8.17;5.07;;;;;;;21.94;68.54;100419.47;5015418;28;20847;-70
2021/07/25 02:50:01;;;;;;;10.53;4.43;;;;;;;21.89;68.42;100413.13;5015327;28;20467;-71
2021/07/25 02:52:28;;;;;;;6.97;4.27;;;;;;;21.89;68.54;100417.88;5015210;28;20453;-71
2021/07/25 02:54:54;;;;;;;7.27;4.50;;;;;;;21.85;68.49;100412.31;5015328;28;20443;-71
2021/07/25 02:57:21;;;;;;;5.07;3.90;;;;;;;21.84;69.32;100419.00;5015212;28;20494;-71
2021/07/25 02:59:47;;;;;;;8.40;4.53;;;;;;;21.79;69.36;100413.84;5015126;28;20464;-71
2021/07/25 03:02:13;;;;;;;8.10;5.13;;;;;;;21.76;68.91;100424.84;5014745;28;21000;-71
2021/07/25 03:04:41;;;;;;;12.10;4.50;;;;;;;21.70;68.75;100429.13;5015115;28;20455;-71
2021/07/25 03:07:08;;;;;;;9.63;5.53;;;;;;;21.69;69.65;100431.06;5015092;28;20447;-71
2021/07/25 03:09:34;;;;;;;7.77;4.93;;;;;;;21.64;70.71;100426.69;5015006;28;20468;-71
2021/07/25 03:12:01;;;;;;;7.97;4.50;;;;;;;21.57;70.87;100421.16;5014942;28;20457;-71
2021/07/25 03:14:27;;;;;;;5.07;3.77;;;;;;;21.51;71.08;100422.66;5014913;28;20448;-71
2021/07/25 03:16:53;;;;;;;6.00;4.30;;;;;;;21.51;70.65;100424.59;5014659;28;21056;-71
2021/07/25 03:19:20;;;;;;;7.03;3.60;;;;;;;21.46;71.05;100423.00;5014735;28;20463;-71
2021/07/25 03:21:47;;;;;;;7.27;4.37;;;;;;;21.45;71.87;100423.38;5014549;28;20522;-71
2021/07/25 03:24:14;;;;;;;6.57;4.30;;;;;;;21.40;72.01;100430.81;5014771;28;20439;-71
2021/07/25 03:26:40;;;;;;;10.73;5.60;;;;;;;21.39;70.65;100439.47;5014708;28;20455;-71
2021/07/25 03:29:07;;;;;;;9.07;5.13;;;;;;;21.38;71.75;100435.09;5014569;28;20468;-71
2021/07/25 03:31:33;;;;;;;7.00;4.57;;;;;;;21.32;71.92;100431.91;5014624;28;20440;-71
2021/07/25 03:34:00;;;;;;;15.10;6.70;;;;;;;21.30;72.59;100428.72;5014591;28;20440;-71
2021/07/25 03:36:27;;;;;;;6.80;4.17;;;;;;;21.27;71.25;100420.41;5014501;28;20448;-71
2021/07/25 03:38:55;;;;;;;8.30;5.10;;;;;;;21.24;71.25;100427.47;5014437;28;20460;-71
2021/07/25 03:41:21;;;;;;;9.83;5.13;;;;;;;21.25;71.50;100415.28;5014346;28;20484;-71
2021/07/25 03:43:47;;;;;;;10.67;4.97;;;;;;;21.26;70.70;100427.09;5014399;28;20452;-70
2021/07/25 03:46:16;;;;;;;10.27;6.00;;;;;;;21.30;71.21;100425.19;5014320;28;20858;-71
2021/07/25 03:48:42;;;;;;;10.33;5.13;;;;;;;21.31;70.84;100427.56;5014275;28;20463;-71
2021/07/25 03:51:09;;;;;;;7.80;4.57;;;;;;;21.32;71.54;100428.38;5014277;28;20440;-71
2021/07/25 03:53:35;;;;;;;9.13;5.13;;;;;;;21.32;71.39;100428.38;5014247;28;20456;-71
2021/07/25 03:56:03;;;;;;;10.73;5.77;;;;;;;21.35;71.13;100422.91;5014197;28;20439;-71
2021/07/25 03:58:30;;;;;;;9.10;4.97;;;;;;;21.37;71.43;100423.28;5013680;28;20460;-71
2021/07/25 04:00:56;;;;;;;11.77;5.03;;;;;;;21.38;71.68;100422.16;5014100;28;20799;-71
2021/07/25 04:03:22;;;;;;;7.00;4.30;;;;;;;21.39;71.53;100420.19;5013681;28;21008;-71
2021/07/25 04:05:49;;;;;;;9.33;4.83;;;;;;;21.41;71.96;100424.13;5013485;28;20455;-71
2021/07/25 04:08:16;;;;;;;8.73;4.43;;;;;;;21.40;71.23;100425.31;5013879;28;20471;-71
2021/07/25 04:10:43;;;;;;;9.90;4.70;;;;;;;21.45;71.28;100428.88;5013691;28;20530;-71
2021/07/25 04:13:12;;;;;;;8.60;5.37;;;;;;;21.45;72.01;100426.13;5013944;28;20814;-71
2021/07/25 04:15:39;;;;;;;5.57;4.53;;;;;;;21.46;72.21;100424.97;5013828;28;20474;-71
2021/07/25 04:18:06;;;;;;;8.83;4.63;;;;;;;21.47;71.71;100426.53;5013948;28;20881;-71
2021/07/25 04:20:33;;;;;;;9.10;4.47;;;;;;;21.49;72.91;100425.00;5013792;28;20447;-71
2021/07/25 04:23:01;;;;;;;9.07;5.40;;;;;;;21.53;72.16;100423.06;5013222;28;21031;-72
2021/07/25 04:25:28;;;;;;;8.87;5.27;;;;;;;21.54;71.61;100429.38;5013424;28;20456;-71
2021/07/25 04:27:55;;;;;;;6.43;4.47;;;;;;;21.56;71.62;100430.59;5013674;28;20443;-71
2021/07/25 04:30:24;;;;;;;9.60;4.60;;;;;;;21.60;72.06;100433.34;5013583;28;20464;-71
2021/07/25 04:32:51;;;;;;;7.73;5.17;;;;;;;21.64;72.48;100432.22;5013604;28;20440;-71
2021/07/25 04:35:19;;;;;;;10.20;5.13;;;;;;;21.69;72.69;100425.56;5013594;28;20474;-72
2021/07/25 04:37:49;;;;;;;8.57;5.37;;;;;;;21.72;72.61;100430.31;5013548;28;20447;-71
2021/07/25 04:40:17;;;;;;;6.80;4.67;;;;;;;21.74;72.66;100425.25;5013558;28;20571;-72
2021/07/25 04:42:47;;;;;;;8.17;4.90;;;;;;;21.78;72.91;100423.31;5013023;28;20855;-71
2021/07/25 04:45:16;;;;;;;10.40;5.40;;;;;;;21.80;73.04;100423.69;5013154;28;20475;-71
2021/07/25 04:47:50;;;;;;;10.30;5.00;;;;;;;21.83;73.12;100430.44;5013445;28;20436;-71
2021/07/25 04:50:20;;;;;;;7.63;4.50;;;;;;;21.82;72.52;100428.81;5013373;28;20490;-71
2021/07/25 04:52:51;;;;;;;9.87;6.00;;;;;;;21.78;71.22;100439.03;5013380;28;20447;-71
2021/07/25 04:55:21;;;;;;;6.80;4.67;;;;;;;21.80;71.38;100434.72;5013194;28;20893;-71
2021/07/25 04:57:54;;;;;;;8.00;4.83;;;;;;;21.79;72.48;100440.63;5013864;28;20528;-72
2021/07/25 05:00:22;;;;;;;11.97;5.10;;;;;;;21.77;73.25;100437.44;5012960;28;20472;-71
2021/07/25 05:02:57;;;;;;;7.93;4.90;;;;;;;21.74;73.49;100435.47;5013266;28;20487;-71
2021/07/25 05:05:24;;;;;;;12.47;4.33;;;;;;;21.80;73.44;100445.75;5013315;28;20424;-71
2021/07/25 05:07:51;;;;;;;7.33;4.67;;;;;;;21.82;74.99;100443.41;5013004;28;20851;-71
2021/07/25 05:10:19;;;;;;;8.93;4.60;;;;;;;21.84;74.65;100448.56;5013145;28;20468;-70
2021/07/25 05:12:52;;;;;;;7.93;5.03;;;;;;;21.89;75.59;100449.00;5013268;28;20443;-71
2021/07/25 05:15:29;;;;;;;10.13;5.20;;;;;;;21.94;74.55;100447.06;5012963;28;20906;-71
2021/07/25 05:18:02;;;;;;;9.53;5.00;;;;;;;22.00;73.63;100456.56;5016078;28;20432;-71
2021/07/25 05:20:35;;;;;;;7.07;4.80;;;;;;;22.09;74.10;100457.84;5016789;28;20944;-71
2021/07/25 05:23:09;;;;;;;8.60;4.90;;;;;;;22.20;74.13;100460.69;5016649;28;20498;-71
2021/07/25 05:25:40;;;;;;;7.23;5.00;;;;;;;22.24;73.79;100458.75;5016707;28;20827;-71
2021/07/25 05:28:07;;;;;;;10.27;6.10;;;;;;;22.44;74.16;100464.78;5016889;28;20428;-71
2021/07/25 05:30:39;;;;;;;10.23;5.20;;;;;;;22.54;72.60;100469.59;5016869;28;20444;-71
2021/07/25 05:33:07;;;;;;;11.47;5.37;;;;;;;22.67;73.64;100478.38;5017051;28;20428;-71
2021/07/25 05:35:34;;;;;;;9.13;5.70;;;;;;;22.73;72.25;100467.72;5016807;28;20450;-73
2021/07/25 05:38:00;;;;;;;8.30;4.90;;;;;;;22.80;72.99;100463.03;5016779;28;20826;-73
2021/07/25 05:40:26;;;;;;;13.13;5.50;;;;;;;22.87;73.58;100463.06;5016303;28;21012;-73
2021/07/25 05:42:53;;;;;;;8.80;5.97;;;;;;;22.94;71.80;100458.78;5016633;28;20486;-73
2021/07/25 05:45:19;;;;;;;9.20;4.87;;;;;;;23.02;70.62;100469.50;5016314;28;20859;-73
2021/07/25 05:47:46;;;;;;;11.83;5.97;;;;;;;23.12;70.08;100476.22;5016614;28;20450;-73
2021/07/25 05:50:14;;;;;;;8.10;5.43;;;;;;;23.20;70.35;100475.09;5016437;28;20468;-73
2021/07/25 05:52:48;;;;;;;7.97;5.20;;;;;;;23.35;70.57;100473.16;5016450;28;20463;-73
2021/07/25 05:55:19;;;;;;;7.47;4.83;;;;;;;23.42;69.91;100476.72;5016433;28;20777;-73
2021/07/25 05:57:45;;;;;;;7.07;5.00;;;;;;;23.56;70.22;100469.66;5016609;28;20435;-73
2021/07/25 06:00:13;;;;;;;12.83;5.97;;;;;;;23.65;69.40;100461.78;5016203;28;20499;-73
2021/07/25 06:02:53;;;;;;;9.87;5.50;;;;;;;23.71;69.23;100462.19;5016215;28;20480;-73
2021/07/25 06:05:21;;;;;;;11.23;5.40;;;;;;;23.71;68.33;100465.72;5016300;28;20428;-73
2021/07/25 06:07:48;;;;;;;8.20;4.97;;;;;;;23.72;68.88;100461.78;5016219;28;20494;-72
2021/07/25 06:10:15;;;;;;;9.20;5.50;;;;;;;23.65;67.71;100462.56;5016114;28;20456;-72
2021/07/25 06:12:41;;;;;;;22.27;5.70;;;;;;;23.56;66.52;100453.84;5016083;28;20444;-72
2021/07/25 06:15:09;;;;;;;11.30;5.87;;;;;;;23.62;68.36;100462.53;5016084;28;20444;-72
2021/07/25 06:17:36;;;;;;;8.77;5.50;;;;;;;23.63;68.62;100464.09;5016013;28;20444;-72
2021/07/25 06:20:02;;;;;;;6.47;4.97;;;;;;;23.63;68.86;100451.06;5015909;28;20468;-72
2021/07/25 06:22:38;;;;;;;11.67;5.60;;;;;;;23.66;70.85;100452.28;5015555;28;20491;-72
2021/07/25 06:25:06;;;;;;;10.83;6.00;;;;;;;23.70;70.91;100453.09;5015651;28;20939;-72
2021/07/25 06:27:33;;;;;;;10.33;6.03;;;;;;;23.83;70.87;100446.00;5015108;28;21004;-71
2021/07/25 06:29:59;;;;;;;11.73;5.00;;;;;;;23.95;68.31;100447.59;5015729;28;20468;-71
2021/07/25 06:32:25;;;;;;;8.47;4.73;;;;;;;24.05;67.83;100446.78;5015743;28;20436;-71
2021/07/25 06:34:52;;;;;;;9.90;5.40;;;;;;;24.23;68.48;100451.50;5015743;28;20444;-71
2021/07/25 06:37:18;;;;;;;8.60;5.80;;;;;;;24.33;67.90;100445.94;5015655;28;20813;-72
2021/07/25 06:39:46;;;;;;;9.50;6.27;;;;;;;24.44;66.39;100445.97;5015522;28;20468;-72
2021/07/25 06:42:12;;;;;;;8.03;5.27;;;;;;;24.56;67.18;100453.03;5015503;28;20447;-72
2021/07/25 06:44:39;;;;;;;7.23;4.40;;;;;;;24.62;66.52;100451.47;5015529;28;20436;-72
2021/07/25 06:47:05;;;;;;;8.77;6.00;;;;;;;24.68;66.41;100452.63;5015511;28;20448;-72
2021/07/25 06:49:32;;;;;;;8.13;5.50;;;;;;;24.72;66.43;100456.19;5015348;28;20472;-71
2021/07/25 06:51:58;;;;;;;7.87;5.23;;;;;;;24.76;67.04;100445.88;5015328;28;20491;-72
2021/07/25 06:54:24;;;;;;;9.93;6.20;;;;;;;24.80;66.95;100451.41;5015339;28;20440;-72
2021/07/25 06:56:52;;;;;;;9.27;5.97;;;;;;;24.86;66.57;100447.81;5015309;28;20450;-72
2021/07/25 06:59:18;;;;;;;9.70;4.90;;;;;;;24.88;66.15;100448.22;5014882;28;20984;-72
2021/07/25 07:01:45;;;;;;;6.83;5.77;;;;;;;24.83;66.94;100448.59;5015225;28;20452;-72
2021/07/25 07:04:11;;;;;;;14.43;7.70;;;;;;;24.74;66.47;100453.78;5015107;28;20491;-72
2021/07/25 07:06:40;;;;;;;6.80;4.90;;;;;;;24.64;65.42;100443.53;5015079;28;20503;-72
2021/07/25 07:09:06;;;;;;;8.90;5.20;;;;;;;24.63;66.17;100448.28;5014693;28;20460;-72
2021/07/25 07:11:32;;;;;;;8.40;4.93;;;;;;;24.64;66.05;100452.63;5014994;28;20448;-71
2021/07/25 07:14:02;;;;;;;10.30;6.00;;;;;;;24.65;65.41;100450.66;5014981;28;20444;-72
2021/07/25 07:16:28;;;;;;;10.20;6.20;;;;;;;24.68;66.63;100452.63;5014560;28;20469;-72
2021/07/25 07:18:55;;;;;;;10.10;6.23;;;;;;;24.68;65.39;100444.31;5014853;28;20460;-72
2021/07/25 07:21:21;;;;;;;8.93;5.23;;;;;;;24.70;65.29;100457.75;5014837;28;20450;-72
2021/07/25 07:23:47;;;;;;;8.70;5.27;;;;;;;24.68;65.72;100455.41;5014719;28;20499;-72
2021/07/25 07:26:14;;;;;;;9.77;6.50;;;;;;;24.65;66.75;100451.44;5014745;28;20448;-72
2021/07/25 07:28:40;;;;;;;7.93;5.50;;;;;;;24.65;65.93;100453.41;5014630;28;20468;-72
2021/07/25 07:31:08;;;;;;;10.87;5.40;;;;;;;24.75;65.47;100446.28;5016075;28;20452;-72
2021/07/25 07:33:34;;;;;;;6.43;4.70;;;;;;;24.84;64.85;100447.44;5014570;28;20451;-72
2021/07/25 07:36:01;;;;;;;7.77;5.53;;;;;;;24.92;65.46;100448.16;5014662;28;20517;-72
2021/07/25 07:38:27;;;;;;;10.70;5.40;;;;;;;24.95;64.33;100447.38;5014425;28;20475;-72
2021/07/25 07:40:54;;;;;;;7.27;4.70;;;;;;;25.01;64.51;100440.22;5013699;28;20447;-72
2021/07/25 07:43:22;;;;;;;9.73;5.10;;;;;;;24.99;64.42;100441.81;5014001;28;20885;-72
2021/07/25 07:45:50;;;;;;;7.70;4.57;;;;;;;25.02;64.89;100444.59;5014430;28;20452;-72
2021/07/25 07:48:19;;;;;;;6.03;4.43;;;;;;;25.06;63.75;100447.34;5014288;28;20444;-72
2021/07/25 07:50:46;;;;;;;9.77;5.27;;;;;;;25.13;64.48;100450.88;5014365;28;20440;-72
2021/07/25 07:53:12;;;;;;;10.70;5.80;;;;;;;25.22;64.33;100453.22;5013969;28;20440;-72
2021/07/25 07:55:40;;;;;;;10.33;7.03;;;;;;;25.24;64.99;100459.16;5014216;28;20444;-72
2021/07/25 07:58:07;;;;;;;7.67;5.47;;;;;;;25.33;64.36;100461.50;5014081;28;20452;-72
2021/07/25 08:00:33;;;;;;;8.83;5.97;;;;;;;25.40;63.39;100464.19;5014141;28;20451;-73
2021/07/25 08:02:59;;;;;;;8.50;5.17;;;;;;;25.42;62.94;100453.50;5014070;28;20888;-73
2021/07/25 08:05:27;;;;;;;10.43;6.20;;;;;;;25.45;62.65;100455.44;5013753;28;20431;-74
2021/07/25 08:07:54;;;;;;;9.30;6.03;;;;;;;25.49;62.67;100463.75;5014129;28;20452;-73
2021/07/25 08:10:20;;;;;;;9.10;6.30;;;;;;;25.46;60.99;100464.59;5013860;28;20464;-74
2021/07/25 08:12:47;;;;;;;15.80;6.67;;;;;;;25.53;61.50;100467.31;5013971;28;20443;-74
2021/07/25 08:15:15;;;;;;;11.00;6.10;;;;;;;25.56;61.96;100460.94;5013898;28;20448;-74
2021/07/25 08:17:41;;;;;;;11.43;5.90;;;;;;;25.64;63.45;100466.03;5013863;28;20475;-75
2021/07/25 08:20:09;;;;;;;8.80;6.00;;;;;;;25.72;63.42;100461.25;5013434;28;20464;-74
2021/07/25 08:22:37;;;;;;;8.83;6.10;;;;;;;25.79;61.98;100460.41;5013246;28;20464;-74
2021/07/25 08:25:04;;;;;;;7.60;5.30;;;;;;;25.89;61.33;100460.31;5013742;28;20444;-74
2021/07/25 08:27:31;;;;;;;7.90;5.27;;;;;;;26.02;58.59;100473.72;5013810;28;20448;-76
2021/07/25 08:29:58;;;;;;;7.03;5.33;;;;;;;26.13;59.26;100469.66;5013925;28;20460;-75
2021/07/25 08:32:24;;;;;;;10.93;5.83;;;;;;;26.16;56.49;100468.84;5013590;28;20443;-74
2021/07/25 08:34:50;;;;;;;11.73;6.17;;;;;;;26.26;58.11;100467.16;5013587;28;20451;-74
2021/07/25 08:37:17;;;;;;;9.23;6.13;;;;;;;26.28;59.19;100461.19;5013594;28;20440;-74
2021/07/25 08:39:45;;;;;;;11.07;6.63;;;;;;;26.28;58.70;100467.53;5013563;28;20460;-74
2021/07/25 08:42:13;;;;;;;7.77;5.30;;;;;;;26.30;58.23;100462.38;5013558;28;20451;-74
2021/07/25 08:44:46;;;;;;;8.37;5.37;;;;;;;26.38;59.68;100465.84;5013201;28;20567;-74
2021/07/25 08:47:37;;;;;;;7.93;5.10;;;;;;;26.43;59.92;100459.84;5013514;28;20532;-74
2021/07/25 08:50:07;;;;;;;14.57;7.27;;;;;;;26.48;59.64;100458.66;5013431;28;20468;-73
2021/07/25 08:52:35;;;;;;;8.50;5.97;;;;;;;26.54;58.64;100448.66;5013390;28;20440;-74
2021/07/25 08:55:06;;;;;;;9.40;5.80;;;;;;;26.64;57.39;100445.75;5014095;28;20444;-76
2021/07/25 08:57:35;;;;;;;8.33;5.23;;;;;;;26.68;58.00;100442.94;5013518;28;20432;-76
2021/07/25 09:00:03;;;;;;;7.30;5.10;;;;;;;26.66;56.42;100443.34;5014303;28;20815;-77
2021/07/25 09:02:30;;;;;;;12.60;7.03;;;;;;;26.70;59.01;100446.09;5014021;28;20459;-77
2021/07/25 09:04:58;;;;;;;9.37;5.40;;;;;;;26.80;59.16;100445.16;5013970;28;20490;-77
2021/07/25 09:07:26;;;;;;;8.03;5.00;;;;;;;26.91;58.98;100445.03;5013557;28;20448;-77
2021/07/25 09:09:56;;;;;;;9.20;5.70;;;;;;;27.01;58.83;100444.13;5013960;28;20472;-77
2021/07/25 09:12:25;;;;;;;7.83;5.23;;;;;;;27.10;58.75;100452.78;5013712;28;20945;-77
2021/07/25 09:14:54;;;;;;;6.03;5.10;;;;;;;27.17;57.14;100447.09;5014354;28;20444;-77
2021/07/25 09:17:21;;;;;;;8.53;5.53;;;;;;;27.26;56.84;100443.00;5014311;28;20498;-77
2021/07/25 09:20:14;;;;;;;9.00;5.63;;;;;;;27.34;57.31;100450.06;5013808;28;20472;-77
2021/07/25 09:22:56;;;;;;;9.17;5.20;;;;;;;27.47;59.39;100444.72;5013555;28;20468;-78
2021/07/25 09:25:28;;;;;;;7.70;5.37;;;;;;;27.53;57.69;100454.16;5014070;28;20432;-77
2021/07/25 09:28:15;;;;;;;8.20;5.80;;;;;;;27.47;57.16;100447.50;5013932;28;20429;-77
2021/07/25 09:30:41;;;;;;;8.37;5.80;;;;;;;27.50;57.80;100443.88;5014109;28;20799;-78
2021/07/25 09:33:26;;;;;;;7.83;5.73;;;;;;;27.44;57.98;100448.31;5016283;28;20448;-78
2021/07/25 09:35:53;;;;;;;9.90;6.30;;;;;;;27.41;59.20;100441.63;5013372;28;20937;-77
2021/07/25 09:38:35;;;;;;;9.40;6.10;;;;;;;27.47;58.42;100444.72;5013588;28;20455;-76
2021/07/25 09:41:02;;;;;;;10.50;6.03;;;;;;;27.59;57.96;100449.69;5013851;28;20444;-77
2021/07/25 09:43:30;;;;;;;9.43;6.10;;;;;;;27.63;57.96;100444.88;5013573;28;20934;-77
2021/07/25 09:45:59;;;;;;;12.80;6.43;;;;;;;27.64;57.21;100447.22;5013662;28;20830;-77
2021/07/25 09:48:27;;;;;;;8.80;5.43;;;;;;;27.79;58.25;100447.00;5013767;28;20464;-77
2021/07/25 09:50:57;;;;;;;7.87;5.80;;;;;;;27.88;57.57;100445.25;5014289;28;20455;-77
2021/07/25 09:53:23;;;;;;;7.90;5.80;;;;;;;28.00;56.66;100441.09;5013895;28;20471;-77
2021/07/25 09:55:52;;;;;;;7.23;5.30;;;;;;;28.06;58.43;100438.59;5013606;28;20447;-78
2021/07/25 09:58:34;;;;;;;6.93;5.57;;;;;;;28.13;58.43;100422.56;5013196;28;20949;-77
2021/07/25 10:01:00;;;;;;;9.00;5.40;;;;;;;28.15;57.28;100422.13;5013782;28;20464;-77
2021/07/25 10:03:32;;;;;;;9.87;5.53;;;;;;;28.26;56.02;100424.72;5015194;28;20490;-77
2021/07/25 10:05:59;;;;;;;9.10;5.77;;;;;;;28.34;57.61;100423.38;5017551;28;20437;-78
2021/07/25 10:08:25;;;;;;;9.43;6.13;;;;;;;28.40;55.62;100416.13;5016059;28;20977;-76
2021/07/25 10:10:55;;;;;;;9.90;5.87;;;;;;;28.46;54.74;100421.97;5016383;28;20865;-77
2021/07/25 10:13:24;;;;;;;10.47;5.53;;;;;;;28.56;54.79;100409.84;5016684;28;20439;-77
2021/07/25 10:15:55;;;;;;;9.53;5.93;;;;;;;28.59;54.01;100425.69;5016507;28;20448;-77
2021/07/25 10:18:22;;;;;;;9.07;6.20;;;;;;;28.65;54.58;100413.63;5016232;28;20826;-77
2021/07/25 10:20:50;;;;;;;9.27;5.60;;;;;;;28.72;53.55;100411.91;5016022;28;20965;-77
2021/07/25 10:23:18;;;;;;;8.10;5.77;;;;;;;28.79;54.16;100418.13;5015836;28;20456;-77
2021/07/25 10:25:50;;;;;;;13.60;6.20;;;;;;;28.89;55.58;100417.13;5016646;28;20451;-78
2021/07/25 10:28:19;;;;;;;8.30;5.37;;;;;;;28.98;54.33;100413.00;5016034;28;20984;-76
2021/07/25 10:30:46;;;;;;;6.53;5.67;;;;;;;29.14;52.87;100415.81;5016573;28;20472;-77
2021/07/25 10:33:15;;;;;;;7.30;5.33;;;;;;;29.30;53.50;100424.22;5016592;28;20447;-78
2021/07/25 10:35:43;;;;;;;8.80;6.07;;;;;;;29.40;55.06;100428.00;5016338;28;20476;-78
2021/07/25 10:38:10;;;;;;;8.23;6.17;;;;;;;29.42;54.07;100419.97;5016137;28;20806;-78
2021/07/25 10:40:37;;;;;;;10.87;5.80;;;;;;;29.54;50.95;100419.28;5015971;28;20519;-77
2021/07/25 10:43:06;;;;;;;8.93;5.77;;;;;;;29.64;52.13;100417.47;5016360;28;20448;-78
2021/07/25 10:45:34;;;;;;;8.60;5.40;;;;;;;29.73;50.14;100420.44;5015855;28;20542;-78
2021/07/25 10:48:12;;;;;;;7.40;5.37;;;;;;;29.88;51.74;100427.25;5016324;28;20454;-77
2021/07/25 10:50:40;;;;;;;6.57;4.83;;;;;;;29.99;51.55;100420.59;5016173;28;20798;-78
2021/07/25 10:53:06;;;;;;;8.93;5.93;;;;;;;30.17;51.56;100431.34;5016578;28;20440;-78
2021/07/25 10:55:51;;;;;;;8.77;5.60;;;;;;;30.22;48.56;100422.41;5016214;28;20949;-77
2021/07/25 10:58:20;;;;;;;8.97;5.33;;;;;;;30.21;48.35;100424.44;5016356;28;20540;-78
2021/07/25 11:00:49;;;;;;;7.33;5.53;;;;;;;30.47;50.25;100430.13;5016511;28;20848;-78
2021/07/25 11:03:44;;;;;;;5.83;4.70;;;;;;;30.78;49.03;100428.47;5016235;28;20938;-78
2021/07/25 11:06:19;;;;;;;6.40;4.83;;;;;;;30.98;48.54;100430.28;5015761;28;20510;-77
2021/07/25 11:08:49;;;;;;;5.83;4.70;;;;;;;30.76;46.63;100435.72;5015554;28;20470;-76
2021/07/25 11:11:53;;;;;;;7.80;4.40;;;;;;;30.70;47.31;100429.06;5015676;28;20452;-78
2021/07/25 11:15:04;;;;;;;6.77;4.77;;;;;;;30.54;47.86;100425.09;5015126;28;20478;-77
2021/07/25 11:17:51;;;;;;;8.00;5.73;;;;;;;30.66;47.95;100432.75;5018963;28;20788;-78
2021/07/25 11:20:58;;;;;;;7.50;4.90;;;;;;;30.90;47.00;100429.69;5017676;28;20998;-78
2021/07/25 11:23:36;;;;;;;7.50;5.30;;;;;;;31.28;47.34;100420.59;5016455;28;20487;-78
2021/07/25 11:26:32;;;;;;;7.60;5.20;;;;;;;31.89;49.69;100423.00;5017239;28;20439;-77
2021/07/25 11:29:00;;;;;;;6.33;5.43;;;;;;;32.69;47.22;100421.03;5015660;28;20476;-74
2021/07/25 11:31:38;;;;;;;6.37;4.90;;;;;;;33.62;44.90;100429.47;5016089;28;20452;-74
2021/07/25 11:34:06;;;;;;;9.50;5.37;;;;;;;34.15;43.45;100426.47;5015832;28;20417;-78